Time;durP1;ratioP1;P1;durP2;ratioP2;P2;SDS_P1;SDS_P2;PMS_P1;PMS_P2;Temp;Humidity;BMP_temperature;BMP_pressure;BME280_temperature;BME280_humidity;BME280_pressure;Samples;Min_cycle;Max_cycle;Signal;HPM_P1;HPM_P2
2021/12/30 00:00:59;;;;;;;;;;;;;;;-144.99;100.00;52590.78;5100394;28;20077;-62
2021/12/30 00:03:25;;;;;;;;;;;;;;;-144.99;100.00;52594.84;5100710;28;19924;-61
2021/12/30 00:05:52;;;;;;;;;;;;;;;-144.99;100.00;52584.66;5105893;28;20138;-62
2021/12/30 00:08:19;;;;;;;;;;;;;;;-144.99;100.00;52603.00;5100630;28;19919;-62
2021/12/30 00:10:47;;;;;;;;;;;;;;;-144.99;100.00;52607.09;5095985;28;19925;-64
2021/12/30 00:13:13;;;;;;;;;;;;;;;-144.99;100.00;52600.97;5104108;28;20300;-62
2021/12/30 00:15:40;;;;;;;;;;;;;;;-144.99;100.00;52603.00;5098385;28;20312;-63
2021/12/30 00:18:07;;;;;;;;;;;;;;;-144.99;100.00;52611.16;5106044;28;19924;-63
2021/12/30 00:20:34;;;;;;;;;;;;;;;-144.99;100.00;52607.09;5096010;28;19927;-63
2021/12/30 00:23:03;;;;;;;;;;;;;;;-144.99;100.00;52554.09;5100147;28;20430;-63
2021/12/30 00:25:37;;;;;;;;;;;;;;;-144.99;100.00;52566.31;5102737;28;19919;-62
2021/12/30 00:28:05;;;;;;;;;;;;;;;-144.99;100.00;52590.78;5102912;28;19966;-63
2021/12/30 00:30:31;;;;;;;;;;;;;;;-144.99;100.00;52619.31;5105524;28;19923;-63
2021/12/30 00:32:58;;;;;;;;;;;;;;;-144.99;100.00;52611.16;5105789;28;19919;-62
2021/12/30 00:35:27;;;;;;;;;;;;;;;-144.99;100.00;52623.38;5102810;28;19919;-63
2021/12/30 00:37:54;;;;;;;;;;;;;;;-144.99;100.00;52580.59;5100907;28;20310;-62
2021/12/30 00:40:20;;;;;;;;;;;;;;;-144.99;100.00;52588.75;5100672;28;19950;-64
2021/12/30 00:42:46;;;;;;;;;;;;;;;-144.99;100.00;52582.63;5103157;28;20081;-62
2021/12/30 00:45:14;;;;;;;;;;;;;;;-144.99;100.00;52572.44;5099940;28;20043;-62
2021/12/30 00:47:41;;;;;;;;;;;;;;;-144.99;100.00;52590.78;5104020;28;19935;-61
2021/12/30 00:50:08;;;;;;;;;;;;;;;-144.99;100.00;52582.63;5098275;28;20014;-62
2021/12/30 00:52:34;;;;;;;;;;;;;;;-144.99;100.00;52607.09;5097813;28;19923;-59
2021/12/30 00:55:01;;;;;;;;;;;;;;;-144.99;100.00;52615.25;5098761;28;19932;-60
2021/12/30 00:57:27;;;;;;;;;;;;;;;-144.99;100.00;52615.25;5100901;28;19919;-60
2021/12/30 00:59:53;;;;;;;;;;;;;;;-144.99;100.00;52582.63;5097707;28;19954;-60
2021/12/30 01:02:21;;;;;;;;;;;;;;;-144.99;100.00;52566.31;5100867;28;19983;-60
2021/12/30 01:04:48;;;;;;;;;;;;;;;-144.99;100.00;52607.09;5095648;28;20030;-60
2021/12/30 01:07:14;;;;;;;;;;;;;;;-144.99;100.00;52586.69;5105761;28;20267;-60
2021/12/30 01:09:40;;;;;;;;;;;;;;;-144.99;100.00;52598.94;5099520;28;19932;-60
2021/12/30 01:12:07;;;;;;;;;;;;;;;-144.99;100.00;52582.63;5099910;28;19976;-60
2021/12/30 01:14:36;;;;;;;;;;;;;;;-144.99;100.00;52596.88;4746297;28;10000122;-60
2021/12/30 01:17:14;;;;;;;;;;;;;;;-144.99;100.00;52594.84;5098827;28;19967;-59
2021/12/30 01:19:45;;;;;;;;;;;;;;;-144.99;100.00;52627.47;5101193;28;20010;-59
2021/12/30 01:22:12;;;;;;;;;;;;;;;-144.99;100.00;52590.78;5100447;28;19965;-59
2021/12/30 01:24:38;;;;;;;;;;;;;;;-144.99;100.00;52598.94;5097116;28;20014;-60
2021/12/30 01:27:05;;;;;;;;;;;;;;;-144.99;100.00;52592.81;5101397;28;19959;-60
2021/12/30 01:29:33;;;;;;;;;;;;;;;-144.99;100.00;52578.53;5108663;28;20347;-60
2021/12/30 01:31:59;;;;;;;;;;;;;;;-144.99;100.00;52562.25;5099786;28;20026;-59
2021/12/30 01:34:27;;;;;;;;;;;;;;;-144.99;100.00;52607.09;5100465;28;19920;-59
2021/12/30 01:36:55;;;;;;;;;;;;;;;-144.99;100.00;52594.84;5100495;28;19973;-59
2021/12/30 01:39:23;;;;;;;;;;;;;;;-144.99;100.00;52586.69;5101855;28;20125;-60
2021/12/30 01:41:50;;;;;;;;;;;;;;;-144.99;100.00;52598.94;5108607;28;19926;-62
2021/12/30 01:44:17;;;;;;;;;;;;;;;-144.99;100.00;52582.63;5103717;28;20297;-62
2021/12/30 01:46:44;;;;;;;;;;;;;;;-144.99;100.00;52566.31;5096683;28;19931;-60
2021/12/30 01:49:12;;;;;;;;;;;;;;;-144.99;100.00;52611.16;5099788;28;20320;-61
2021/12/30 01:51:39;;;;;;;;;;;;;;;-144.99;100.00;52566.31;5099746;28;19923;-60
2021/12/30 01:54:07;;;;;;;;;;;;;;;-144.99;100.00;52582.63;5105889;22;19927;-58
2021/12/30 01:56:34;;;;;;;;;;;;;;;-144.99;100.00;52643.78;5088947;28;20012;-59
2021/12/30 01:59:04;;;;;;;;;;;;;;;-144.99;100.00;52590.78;5091577;28;19939;-61
2021/12/30 02:01:31;;;;;;;;;;;;;;;-144.99;100.00;52578.53;5088675;28;19920;-58
2021/12/30 02:03:57;;;;;;;;;;;;;;;-144.99;100.00;52603.00;5088419;28;19955;-59
2021/12/30 02:06:23;;;;;;;;;;;;;;;-144.99;100.00;52558.16;5091792;28;20019;-61
2021/12/30 02:08:51;;;;;;;;;;;;;;;-144.99;100.00;52603.00;5092154;28;19955;-59
2021/12/30 02:11:19;;;;;;;;;;;;;;;-144.99;100.00;52605.03;5092896;28;20481;-59
2021/12/30 02:13:46;;;;;;;;;;;;;;;-144.99;100.00;52578.53;5092110;28;20022;-59
2021/12/30 02:16:15;;;;;;;;;;;;;;;-144.99;100.00;52545.94;5092266;28;19931;-60
2021/12/30 02:18:41;;;;;;;;;;;;;;;-144.99;100.00;52590.78;5092340;28;19931;-60
2021/12/30 02:21:09;;;;;;;;;;;;;;;-144.99;100.00;52582.63;5092613;28;19924;-61
2021/12/30 02:23:37;;;;;;;;;;;;;;;-144.99;100.00;52615.25;5089078;28;20388;-60
2021/12/30 02:26:04;;;;;;;;;;;;;;;-144.99;100.00;52594.84;5091950;28;19927;-61
2021/12/30 02:28:36;;;;;;;;;;;;;;;-144.99;100.00;52609.13;5092072;28;19920;-60
2021/12/30 02:31:04;;;;;;;;;;;;;;;-144.99;100.00;52582.63;5092251;28;20019;-59
2021/12/30 02:33:31;;;;;;;;;;;;;;;-144.99;100.00;52582.63;5088997;28;19984;-59
2021/12/30 02:35:57;;;;;;;;;;;;;;;-144.99;100.00;52578.53;5093002;28;19920;-60
2021/12/30 02:38:25;;;;;;;;;;;;;;;-144.99;100.00;52607.09;5091850;28;19920;-60
2021/12/30 02:40:55;;;;;;;;;;;;;;;-144.99;100.00;52639.69;5091696;28;19927;-58
2021/12/30 02:43:22;;;;;;;;;;;;;;;-144.99;100.00;52576.50;5092033;28;19920;-58
2021/12/30 02:45:49;;;;;;;;;;;;;;;-144.99;100.00;52611.16;5091423;28;19924;-59
2021/12/30 02:48:16;;;;;;;;;;;;;;;-144.99;100.00;52590.78;5092321;28;19928;-59
2021/12/30 02:50:44;;;;;;;;;;;;;;;-144.99;100.00;52600.97;5091562;28;19928;-59
2021/12/30 02:53:11;;;;;;;;;;;;;;;-144.99;100.00;52605.03;5091336;28;19920;-57
2021/12/30 02:55:39;;;;;;;;;;;;;;;-144.99;100.00;52639.69;5084851;28;20345;-58
2021/12/30 02:58:06;;;;;;;;;;;;;;;-144.99;100.00;52598.94;5094584;28;20292;-58
2021/12/30 03:00:32;;;;;;;;;;;;;;;-144.99;100.00;52586.69;5092156;28;19959;-58
2021/12/30 03:02:59;;;;;;;153.75;71.05;;;;;;;-144.99;100.00;52603.00;5091090;28;24855;-58
2021/12/30 03:05:26;;;;;;;;;;;;;;;-144.99;100.00;52605.03;5090820;28;20665;-58
2021/12/30 03:07:52;;;;;;;;;;;;;;;-144.99;100.00;52603.00;5091613;28;19920;-58
2021/12/30 03:10:19;;;;;;;;;;;;;;;-144.99;100.00;52594.84;5090605;28;19924;-59
2021/12/30 03:12:52;;;;;;;;;;;;;;;-144.99;100.00;52594.84;5091599;28;19920;-57
2021/12/30 03:15:18;;;;;;;;;;;;;;;-144.99;100.00;52607.09;5091236;28;19971;-58
2021/12/30 03:17:45;;;;;;;;;;;;;;;-144.99;100.00;52611.16;5090271;28;20381;-59
2021/12/30 03:20:11;;;;;;;;;;;;;;;-144.99;100.00;52586.69;5091676;28;19928;-59
2021/12/30 03:22:38;;;;;;;;;;;;;;;-144.99;100.00;52582.63;5092003;28;20384;-59
2021/12/30 03:25:06;;;;;;;;;;;;;;;-144.99;100.00;52623.38;5091788;28;19920;-59
2021/12/30 03:27:32;;;;;;;;;;;;;;;-144.99;100.00;52609.13;5092135;28;20034;-59
2021/12/30 03:30:00;;;;;;;;;;;;;;;-144.99;100.00;52603.00;5091892;28;19981;-59
2021/12/30 03:32:28;;;;;;;;;;;;;;;-144.99;100.00;52584.66;5091294;28;19927;-59
2021/12/30 03:34:54;;;;;;;;;;;;;;;-144.99;100.00;52588.75;5090852;28;19926;-60
2021/12/30 03:37:20;;;;;;;;;;;;;;;-144.99;100.00;52623.38;5090602;28;19947;-60
2021/12/30 03:39:48;;;;;;;;;;;;;;;-144.99;100.00;52627.47;5088459;28;19919;-59
2021/12/30 03:42:15;;;;;;;;;;;;;;;-144.99;100.00;52617.28;5091399;28;19920;-59
2021/12/30 03:44:41;;;;;;;;;;;;;;;-144.99;100.00;52615.25;5090601;28;19920;-61
2021/12/30 03:47:13;;;;;;;;;;;;;;;-144.99;100.00;52605.03;5091026;28;19924;-61
2021/12/30 03:49:43;;;;;;;;;;;;;;;-144.99;100.00;52658.03;5089630;28;19928;-60
2021/12/30 03:52:10;;;;;;;;;;;;;;;-144.99;100.00;52633.59;5085786;28;20281;-61
2021/12/30 03:54:39;;;;;;;;;;;;;;;-144.99;100.00;52586.69;5089784;28;19927;-58
2021/12/30 03:57:05;;;;;;;;;;;;;;;-144.99;100.00;52607.09;5085641;28;19963;-59
2021/12/30 03:59:32;;;;;;;;;;;;;;;-144.99;100.00;52615.25;5090140;28;19926;-61
2021/12/30 04:01:58;;;;;;;;;;;;;;;-144.99;100.00;52613.19;5090148;28;19920;-59
2021/12/30 04:04:26;;;;;;;;;;;;;;;-144.99;100.00;52603.00;5089816;28;19920;-60
2021/12/30 04:06:52;;;;;;;;;;;;;;;-144.99;100.00;52594.84;5090670;28;19920;-59
2021/12/30 04:09:19;;;;;;;;;;;;;;;-144.99;100.00;52596.88;5087761;28;20319;-60
2021/12/30 04:11:46;;;;;;;;;;;;;;;-144.99;100.00;52639.69;5090580;28;19927;-60
2021/12/30 04:14:12;;;;;;;;;;;;;;;-144.99;100.00;52635.63;5090131;28;20010;-59
2021/12/30 04:16:39;;;;;;;;;;;;;;;-144.99;100.00;52594.84;5090082;28;19923;-59
2021/12/30 04:19:06;;;;;;;;;;;;;;;-144.99;100.00;52582.63;5089066;28;19924;-58
2021/12/30 04:21:34;;;;;;;;;;;;;;;-144.99;100.00;52578.53;5089793;28;19977;-58
2021/12/30 04:24:00;;;;;;;;;;;;;;;-144.99;100.00;52562.25;5086920;28;19927;-59
2021/12/30 04:26:27;;;;;;;;;;;;;;;-144.99;100.00;52590.78;5089868;28;19919;-58
2021/12/30 04:28:53;;;;;;;;;;;;;;;-144.99;100.00;52617.28;5088715;28;19973;-58
2021/12/30 04:31:20;;;;;;;;;;;;;;;-144.99;100.00;52631.53;5088742;28;20393;-58
2021/12/30 04:33:46;;;;;;;;;;;;;;;-144.99;100.00;52615.25;5089475;28;19958;-58
2021/12/30 04:36:12;;;;;;;;;;;;;;;-144.99;100.00;52623.38;5089663;28;20010;-59
2021/12/30 04:38:40;;;;;;;;;;;;;;;-144.99;100.00;52603.00;5089260;28;20020;-60
2021/12/30 04:41:07;;;;;;;;;;;;;;;-144.99;100.00;52611.16;5089214;28;20022;-59
2021/12/30 04:43:33;;;;;;;;;;;;;;;-144.99;100.00;52598.94;5089815;28;20521;-60
2021/12/30 04:46:01;;;;;;;;;;;;;;;-144.99;100.00;52586.69;5089031;28;19920;-59
2021/12/30 04:48:28;;;;;;;;;;;;;;;-144.99;100.00;52603.00;5089612;28;20440;-59
2021/12/30 04:50:54;;;;;;;;;;;;;;;-144.99;100.00;52613.19;5088408;28;20014;-59
2021/12/30 04:53:21;;;;;;;;;;;;;;;-144.99;100.00;52598.94;5088940;28;19926;-60
2021/12/30 04:55:49;;;;;;;;;;;;;;;-144.99;100.00;52627.47;5083335;28;19921;-59
2021/12/30 04:58:16;;;;;;;;;;;;;;;-144.99;100.00;52603.00;5091868;28;20377;-60
2021/12/30 05:00:42;;;;;;;;;;;;;;;-144.99;100.00;52639.69;5089063;28;20297;-59
2021/12/30 05:03:11;;;;;;;;;;;;;;;-144.99;100.00;52619.31;5089221;28;19920;-60
2021/12/30 05:05:38;;;;;;;;;;;;;;;-144.99;100.00;52603.00;5089361;28;19956;-59
2021/12/30 05:08:05;;;;;;;;;;;;;;;-144.99;100.00;52594.84;5089555;28;19930;-61
2021/12/30 05:10:31;;;;;;;;;;;;;;;-144.99;100.00;52643.78;5088740;28;20016;-60
2021/12/30 05:12:59;;;;;;;;;;;;;;;-144.99;100.00;52603.00;5088702;28;19924;-60
2021/12/30 05:15:25;;;;;;;;;;;;;;;-144.99;100.00;52653.97;5089496;28;19926;-63
2021/12/30 05:17:52;;;;;;;;;;;;;;;-144.99;100.00;52635.63;5090498;28;19920;-62
2021/12/30 05:20:19;;;;;;;;;;;;;;;-144.99;100.00;52619.31;5090783;28;19920;-62
2021/12/30 05:22:45;;;;;;;;;;;;;;;-144.99;100.00;52609.13;5088011;28;19946;-63
2021/12/30 05:25:12;;;;;;;;;;;;;;;-144.99;100.00;52598.94;5088928;28;20323;-62
2021/12/30 05:27:39;;;;;;;;;;;;;;;-144.99;100.00;52603.00;5089021;28;20285;-63
2021/12/30 05:30:08;;;;;;;;;;;;;;;-144.99;100.00;52647.84;5089085;28;19920;-65
2021/12/30 05:32:35;;;;;;;;;;;;;;;-144.99;100.00;52611.16;5089001;28;19935;-65
2021/12/30 05:35:02;;;;;;;;;;;;;;;-144.99;100.00;52617.28;5089651;28;19927;-61
2021/12/30 05:37:29;;;;;;;;;;;;;;;-144.99;100.00;52609.13;5090399;28;19926;-61
2021/12/30 05:39:55;;;;;;;;;;;;;;;-144.99;100.00;52598.94;5089209;28;19992;-61
2021/12/30 05:42:22;;;;;;;;;;;;;;;-144.99;100.00;52590.78;5092453;28;19993;-61
2021/12/30 05:44:49;;;;;;;;;;;;;;;-144.99;100.00;52600.97;5092912;28;20003;-60
2021/12/30 05:47:17;;;;;;;;;;;;;;;-144.99;100.00;52566.31;5092778;28;20349;-60
2021/12/30 05:49:43;;;;;;;;;;;;;;;-144.99;100.00;52584.66;5092636;28;19927;-60
2021/12/30 05:52:10;;;;;;;;;;;;;;;-144.99;100.00;52617.28;5092369;28;19920;-60
2021/12/30 05:54:37;;;;;;;;;;;;;;;-144.99;100.00;52611.16;5091788;28;20467;-61
2021/12/30 05:57:03;;;;;;;;;;;;;;;-144.99;100.00;52615.25;5094397;28;19928;-61
2021/12/30 05:59:29;;;;;;;;;;;;;;;-144.99;100.00;52625.44;5093759;28;19927;-61
2021/12/30 06:01:56;;;;;;;;;;;;;;;-144.99;100.00;52635.63;5092759;28;19927;-62
2021/12/30 06:04:25;;;;;;;;;;;;;;;-144.99;100.00;52586.69;5091625;28;19920;-62
2021/12/30 06:06:51;;;;;;;;;;;;;;;-144.99;100.00;52596.88;5092398;28;19920;-61
2021/12/30 06:09:21;;;;;;;;;;;;;;;-144.99;100.00;52611.16;5091591;28;19924;-60
2021/12/30 06:11:47;;;;;;;;;;;;;;;-144.99;100.00;52607.09;5092260;28;19959;-60
2021/12/30 06:14:14;;;;;;;;;;;;;;;-144.99;100.00;52582.63;5091654;28;19920;-59
2021/12/30 06:16:40;;;;;;;;;;;;;;;-144.99;100.00;52627.47;5092725;28;19937;-60
2021/12/30 06:19:07;;;;;;;;;;;;;;;-144.99;100.00;52629.50;5091836;28;19920;-59
2021/12/30 06:21:34;;;;;;;;;;;;;;;-144.99;100.00;52633.59;5091953;28;19926;-60
2021/12/30 06:24:01;;;;;;;;;;;;;;;-144.99;100.00;52607.09;5088462;28;20014;-59
2021/12/30 06:26:27;;;;;;;;;;;;;;;-144.99;100.00;52611.16;5092547;28;19923;-58
2021/12/30 06:28:54;;;;;;;;;;;;;;;-144.99;100.00;52570.38;5092296;28;19927;-59
2021/12/30 06:31:20;;;;;;;;;;;;;;;-144.99;100.00;52578.53;5092551;28;20288;-59
2021/12/30 06:33:46;;;;;;;;;;;;;;;-144.99;100.00;52603.00;5091858;28;20312;-59
2021/12/30 06:36:13;;;;;;;;;;;;;;;-144.99;100.00;52623.38;5091326;28;19926;-61
2021/12/30 06:38:40;;;;;;;;;;;;;;;-144.99;100.00;52649.88;5091455;28;19924;-60
2021/12/30 06:41:07;;;;;;;;;;;;;;;-144.99;100.00;52582.63;5091956;28;20301;-61
2021/12/30 06:43:34;;;;;;;;;;;;;;;-144.99;100.00;52578.53;5092044;28;19946;-63
2021/12/30 06:46:03;;;;;;;;;;;;;;;-144.99;100.00;52607.09;5091534;28;20011;-62
2021/12/30 06:48:30;;;;;;;;;;;;;;;-144.99;100.00;52586.69;5091731;28;19920;-60
2021/12/30 06:50:59;;;;;;;;;;;;;;;-144.99;100.00;52603.00;5091284;28;20364;-61
2021/12/30 06:53:25;;;;;;;;;;;;;;;-144.99;100.00;52633.59;5090536;28;20027;-61
2021/12/30 06:55:54;;;;;;;;;;;;;;;-144.99;100.00;52603.00;5090888;28;19926;-62
2021/12/30 06:58:20;;;;;;;;;;;;;;;-144.99;100.00;52603.00;5094556;28;19920;-60
2021/12/30 07:00:47;;;;;;;;;;;;;;;-144.99;100.00;52584.66;5091012;28;20376;-60
2021/12/30 07:03:14;;;;;;;;;;;;;;;-144.99;100.00;52615.25;5091095;28;20344;-61
2021/12/30 07:05:40;;;;;;;;;;;;;;;-144.99;100.00;52596.88;5091393;28;19955;-62
2021/12/30 07:08:07;;;;;;;;;;;;;;;-144.99;100.00;52639.69;5091819;28;19920;-64
2021/12/30 07:10:33;;;;;;;;;;;;;;;-144.99;100.00;52619.31;5090536;28;19920;-63
2021/12/30 07:13:01;;;;;;;;;;;;;;;-144.99;100.00;52631.53;5091260;28;20296;-63
2021/12/30 07:15:27;;;;;;;;;;;;;;;-144.99;100.00;52623.38;5090947;28;19921;-61
2021/12/30 07:17:54;;;;;;;;;;;;;;;-144.99;100.00;52629.50;5091497;28;19920;-62
2021/12/30 07:20:20;;;;;;;;;;;;;;;-144.99;100.00;52639.69;5090732;28;19935;-63
2021/12/30 07:22:46;;;;;;;;;;;;;;;-144.99;100.00;52598.94;5091277;28;19971;-62
2021/12/30 07:25:16;;;;;;;;;;;;;;;-144.99;100.00;52611.16;5091748;28;19931;-60
2021/12/30 07:27:43;;;;;;;;;;;;;;;-144.99;100.00;52615.25;5091775;28;19927;-61
2021/12/30 07:30:12;;;;;;;;;;;;;;;-144.99;100.00;52613.19;5089202;28;19935;-60
2021/12/30 07:32:38;;;;;;;;;;;;;;;-144.99;100.00;52611.16;5090849;28;19963;-60
2021/12/30 07:35:05;;;;;;;;;;;;;;;-144.99;100.00;52592.81;5090864;28;19919;-62
2021/12/30 07:37:31;;;;;;;;;;;;;;;-144.99;100.00;52598.94;5091107;28;19926;-63
2021/12/30 07:39:58;;;;;;;;;;;;;;;-144.99;100.00;52598.94;5090054;28;19920;-61
2021/12/30 07:42:24;;;;;;;;;;;;;;;-144.99;100.00;52637.66;5090508;28;19950;-62
2021/12/30 07:44:51;;;;;;;;;;;;;;;-144.99;100.00;52613.19;5090539;28;19927;-62
2021/12/30 07:47:18;;;;;;;;;;;;;;;-144.99;100.00;52619.31;5090972;28;20384;-61
2021/12/30 07:49:46;;;;;;;;;;;;;;;-144.99;100.00;52611.16;5090273;28;19926;-62
2021/12/30 07:52:14;;;;;;;;;;;;;;;-144.99;100.00;52615.25;5089447;28;20147;-61
2021/12/30 07:54:43;;;;;;;;;;;;;;;-144.99;100.00;52603.00;5102168;22;19981;-61
2021/12/30 07:57:10;;;;;;;;;;;;;;;-144.99;100.00;52609.13;5051751;28;19925;-59
2021/12/30 07:59:36;;;;;;;;;;;;;;;-144.99;100.00;52611.16;5049014;28;20278;-58
2021/12/30 08:02:03;;;;;;;;;;;;;;;-144.99;100.00;52594.84;5046648;28;19983;-63
2021/12/30 08:04:31;;;;;;;;;;;;;;;-144.99;100.00;52619.31;5047351;28;20401;-63
2021/12/30 08:06:57;;;;;;;;;;;;;;;-144.99;100.00;52592.81;5045929;28;19935;-63
2021/12/30 08:09:24;;;;;;;;;;;;;;;-144.99;100.00;52603.00;5047476;28;19940;-63
2021/12/30 08:11:50;;;;;;;;;;;;;;;-144.99;100.00;52625.44;5047003;28;20068;-63
2021/12/30 08:14:17;;;;;;;;;;;;;;;-144.99;100.00;52607.09;5041604;28;19955;-62
2021/12/30 08:16:43;;;;;;;;;;;;;;;-144.99;100.00;52619.31;5045362;28;20103;-62
2021/12/30 08:19:09;;;;;;;;;;;;;;;-144.99;100.00;52574.47;5047562;28;19924;-62
2021/12/30 08:21:41;;;;;;;;;;;;;;;-144.99;100.00;52582.63;5047651;28;20024;-62
2021/12/30 08:24:08;;;;;;;;;;;;;;;-144.99;100.00;52598.94;5040450;28;19925;-61
2021/12/30 08:26:34;;;;;;;;;;;;;;;-144.99;100.00;52619.31;5043206;28;20249;-62
2021/12/30 08:29:01;;;;;;;;;;;;;;;-144.99;100.00;52611.16;5046072;28;19945;-62
2021/12/30 08:31:27;;;;;;;;;;;;;;;-144.99;100.00;52615.25;5047573;28;20356;-61
2021/12/30 08:33:53;;;;;;;;;;;;;;;-144.99;100.00;52643.78;5044618;28;20003;-62
2021/12/30 08:36:20;;;;;;;;;;;;;;;-144.99;100.00;52607.09;5033195;28;20016;-62
2021/12/30 08:38:47;;;;;;;;;;;;;;;-144.99;100.00;52586.69;5046971;28;20031;-61
2021/12/30 08:41:15;;;;;;;;;;;;;;;-144.99;100.00;52598.94;5046762;28;19947;-62
2021/12/30 08:43:41;;;;;;;;;;;;;;;-144.99;100.00;52582.63;5047649;28;20028;-61
2021/12/30 08:46:08;;;;;;;;;;;;;;;-144.99;100.00;52619.31;5047256;28;20377;-61
2021/12/30 08:48:36;;;;;;;;;;;;;;;-144.99;100.00;52594.84;5047848;28;19925;-62
2021/12/30 08:51:03;;;;;;;;;;;;;;;-144.99;100.00;52598.94;5045063;28;20297;-63
2021/12/30 08:53:29;;;;;;;;;;;;;;;-144.99;100.00;52586.69;5047530;28;19936;-62
2021/12/30 08:55:57;;;;;;;;;;;;;;;-144.99;100.00;52598.94;5040364;28;19925;-62
2021/12/30 08:58:24;;;;;;;;;;;;;;;-144.99;100.00;52594.84;5041556;28;19925;-61
2021/12/30 09:00:50;;;;;;;;;;;;;;;-144.99;100.00;52566.31;5043190;28;19925;-62
2021/12/30 09:03:17;;;;;;;;;;;;;;;-144.99;100.00;52623.38;5047212;28;20274;-62
2021/12/30 09:05:44;;;;;;;;;;;;;;;-144.99;100.00;52627.47;5047279;28;19999;-62
2021/12/30 09:08:10;;;;;;;;;;;;;;;-144.99;100.00;52586.69;5046438;28;20298;-62
2021/12/30 09:10:40;;;;;;;;;;;;;;;-144.99;100.00;52643.78;5047519;28;20172;-63
2021/12/30 09:13:09;;;;;;;;;;;;;;;-144.99;100.00;52566.31;5047140;28;19968;-62
2021/12/30 09:15:36;;;;;;;;;;;;;;;-144.99;100.00;52586.69;5048141;28;19925;-62
2021/12/30 09:18:03;;;;;;;;;;;;;;;-144.99;100.00;52586.69;5051246;28;20431;-62
2021/12/30 09:20:29;;;;;;;;;;;;;;;-144.99;100.00;52558.16;5050351;28;20569;-63
2021/12/30 09:22:57;;;;;;;;;;;;;;;-144.99;100.00;52594.84;5050279;28;20376;-61
2021/12/30 09:25:23;;;;;;;;;;;;;;;-144.99;100.00;52578.53;5049139;28;19932;-61
2021/12/30 09:27:50;;;;;;;;;;;;;;;-144.99;100.00;52552.03;5050787;28;20389;-63
2021/12/30 09:30:18;;;;;;;;;;;;;;;-144.99;100.00;52653.97;5051297;28;19955;-60
2021/12/30 09:32:45;;;;;;;;;;;;;;;-144.99;100.00;52578.53;5050853;28;19976;-62
2021/12/30 09:35:12;;;;;;;;;;;;;;;-144.99;100.00;52621.34;5051041;28;20028;-61
2021/12/30 09:37:40;;;;;;;;;;;;;;;-144.99;100.00;52576.50;5051046;28;19924;-61
2021/12/30 09:40:08;;;;;;;;;;;;;;;-144.99;100.00;52578.53;5049957;28;19929;-61
2021/12/30 09:42:36;;;;;;;;;;;;;;;-144.99;100.00;52576.50;5050411;28;20328;-62
2021/12/30 09:45:02;;;;;;;;;;;;;;;-144.99;100.00;52592.81;5050938;28;19931;-62
2021/12/30 09:47:30;;;;;;;;;;;;;;;-144.99;100.00;52623.38;5051842;28;19928;-61
2021/12/30 09:49:57;;;;;;;;;;;;;;;-144.99;100.00;52582.63;5050870;28;20024;-62
2021/12/30 09:52:23;;;;;;;;;;;;;;;-144.99;100.00;52590.78;5051107;28;19940;-62
2021/12/30 09:54:52;;;;;;;;;;;;;;;-144.99;100.00;52603.00;5048698;28;19986;-61
2021/12/30 09:57:21;;;;;;;;;;;;;;;-144.99;100.00;52611.16;5049876;28;19925;-61
2021/12/30 09:59:48;;;;;;;;;;;;;;;-144.99;100.00;52607.09;5050280;28;19935;-62
2021/12/30 10:02:14;;;;;;;;;;;;;;;-144.99;100.00;52586.69;5051279;28;20015;-66
2021/12/30 10:04:42;;;;;;;;;;;;;;;-144.99;100.00;52592.81;5051312;28;20091;-62
2021/12/30 10:07:18;;;;;;;;;;;;;;;-144.99;100.00;52598.94;5041188;28;20001;-67
2021/12/30 10:09:50;;;;;;;;;;;;;;;-144.99;100.00;52619.31;5051398;28;20030;-67
2021/12/30 10:12:31;;;;;;;;;;;;;;;-144.99;100.00;52615.25;5051892;28;20435;-67
2021/12/30 10:14:58;;;;;;;;;;;;;;;-144.99;100.00;52631.53;5050411;28;19925;-67
2021/12/30 10:17:25;;;;;;;;;;;;;;;-144.99;100.00;52594.84;5051663;28;19932;-68
2021/12/30 10:19:54;;;;;;;;;;;;;;;-144.99;100.00;52545.94;5051332;28;20296;-67
2021/12/30 10:22:23;;;;;;;121.72;65.50;;;;;;;-144.99;100.00;52594.84;5050437;28;19932;-67
2021/12/30 10:24:50;;;;;;;;;;;;;;;-144.99;100.00;52619.31;5049719;28;20323;-68
2021/12/30 10:27:24;;;;;;;;;;;;;;;-144.99;100.00;52613.19;5051863;28;19920;-68
2021/12/30 10:29:50;;;;;;;;;;;;;;;-144.99;100.00;52627.47;5051121;28;19924;-67
2021/12/30 10:32:17;;;;;;;;;;;;;;;-144.99;100.00;52572.44;5049872;28;19927;-68
2021/12/30 10:35:01;;;;;;;;;;;;;;;-144.99;100.00;52598.94;5048262;28;20008;-67
2021/12/30 10:37:29;;;;;;;;;;;;;;;-144.99;100.00;52611.16;5044176;28;19936;-67
2021/12/30 10:39:55;;;;;;;;;;;;;;;-144.99;100.00;52619.31;5046072;28;19932;-67
2021/12/30 10:42:22;;;;;;;;;;;;;;;-144.99;100.00;52578.53;5048982;28;19925;-67
2021/12/30 10:44:49;;;;;;;;;;;;;;;-144.99;100.00;52629.50;5049879;28;19999;-68
2021/12/30 10:47:16;;;;;;;;;;;;;;;-144.99;100.00;52611.16;5048164;28;19975;-67
2021/12/30 10:49:42;;;;;;;;;;;;;;;-144.99;100.00;52623.38;5051723;28;19925;-67
2021/12/30 10:52:11;;;;;;;;;;;;;;;-144.99;100.00;52623.38;5052051;28;19920;-67
2021/12/30 10:54:39;;;;;;;;;;;;;;;-144.99;100.00;52582.63;5049955;28;19927;-69
2021/12/30 10:57:07;;;;;;;;;;;;;;;-144.99;100.00;52582.63;5047349;28;19983;-69
2021/12/30 10:59:34;;;;;;;;;;;;;;;-144.99;100.00;52594.84;5049272;28;19920;-69
2021/12/30 11:02:02;;;;;;;;;;;;;;;-144.99;100.00;52623.38;5048911;28;19921;-69
2021/12/30 11:04:36;;;;;;;;;;;;;;;-144.99;100.00;52564.28;5046795;28;19920;-69
2021/12/30 11:07:03;;;;;;;;;;;;;;;-144.99;100.00;52582.63;5045005;28;20012;-69
2021/12/30 11:09:30;;;;;;;;;;;;;;;-144.99;100.00;52594.84;5046753;28;19932;-70
2021/12/30 11:11:59;;;;;;;;;;;;;;;-144.99;100.00;52590.78;5046671;28;20028;-70
2021/12/30 11:14:26;;;;;;;;;;;;;;;-144.99;100.00;52613.19;5042905;28;19986;-70
2021/12/30 11:16:57;;;;;;;;;;;;;;;-144.99;100.00;52631.53;5044201;28;19925;-69
2021/12/30 11:19:24;;;;;;;;;;;;;;;-144.99;100.00;52590.78;5045114;28;19925;-69
2021/12/30 11:21:51;;;;;;;;;;;;;;;-144.99;100.00;52603.00;5043199;28;19952;-69
2021/12/30 11:24:18;;;;;;;;;;;;;;;-144.99;100.00;52598.94;5043827;28;20358;-69
2021/12/30 11:26:45;;;;;;;;;;;;;;;-144.99;100.00;52641.72;5049517;28;19932;-68
2021/12/30 11:29:13;;;;;;;;;;;;;;;-144.99;100.00;52590.78;5046511;28;19924;-68
2021/12/30 11:31:39;;;;;;;;;;;;;;;-144.99;100.00;52590.78;5047249;28;19939;-68
2021/12/30 11:34:06;;;;;;;;;;;;;;;-144.99;100.00;52594.84;5043713;28;19921;-69
2021/12/30 11:36:33;;;;;;;;;;;;;;;-144.99;100.00;52586.69;5044320;28;19924;-69
2021/12/30 11:39:01;;;;;;;;;;;;;;;-144.99;100.00;52611.16;5046645;28;20364;-68
2021/12/30 11:41:28;;;;;;;;;;;;;;;-144.99;100.00;52594.84;5046696;28;19928;-67
2021/12/30 11:43:55;;;;;;;;;;;;;;;-144.99;100.00;52598.94;5044996;28;19920;-68
2021/12/30 11:46:42;;;;;;;;;;;;;;;-144.99;100.00;52578.53;5044522;28;19938;-67
2021/12/30 11:49:09;;;;;;;;;;;;;;;-144.99;100.00;52594.84;5043527;28;19921;-68
2021/12/30 11:51:43;;;;;;;;;;;;;;;-144.99;100.00;52566.31;5046458;28;20063;-67
2021/12/30 11:54:27;;;;;;;;;;;;;;;-144.99;100.00;52611.16;5041586;28;20010;-68
2021/12/30 11:57:08;;;;;;;;;;;;;;;-144.99;100.00;52590.78;5031667;28;20430;-68
2021/12/30 11:59:39;;;;;;;104.00;61.95;;;;;;;-144.99;100.00;52582.63;5048574;28;24604;-67
2021/12/30 12:05:39;;;;;;;110.07;63.27;;;;;;;-144.99;100.00;52594.84;5148155;27;20237;-69
2021/12/30 12:08:07;;;;;;;;;;;;;;;-144.99;100.00;52582.63;5142160;27;20265;-70
2021/12/30 12:10:33;;;;;;;;;;;;;;;-144.99;100.00;52550.00;5149217;27;19931;-67
2021/12/30 12:13:31;;;;;;;;;;;;;;;-144.99;100.00;52590.78;5124325;27;19930;-68
2021/12/30 12:15:57;;;;;;;;;;;;;;;-144.99;100.00;52580.59;5141898;27;19919;-67
2021/12/30 12:18:24;;;;;;;;;;;;;;;-144.99;100.00;52590.78;5133044;27;19963;-67
2021/12/30 12:20:52;;;;;;;;;;;;;;;-144.99;100.00;52562.25;5118984;27;20272;-67